Terminal Aerodrome Forecast
Issued by NWS Billings, MT

Home | Current Version | Previous Version | Text Only | Print | Product List | Glossary Off
Versions: 1 2 3 4 5 6 7 8 9 10 11 12 13 14 15

000
FTUS45 KBYZ 262118 AAB
TAFMLS
TAF AMD
KMLS 262118Z 2621/2718 25012KT P6SM VCTS SCT060CB BKN100
     FM270300 VRB05KT P6SM VCSH BKN035 OVC050
     FM270900 12005KT P6SM SCT012 OVC030
     FM271500 36005KT P6SM VCSH BKN015=

USA.gov is the U.S. government's official web portal to all federal, state and local government web resources and services.